createdAt,value
2018-04-20T00:01:38.943Z,27.10
2018-04-20T00:04:08.815Z,27.00
2018-04-20T00:06:38.557Z,27.20
2018-04-20T00:09:08.518Z,27.30
2018-04-20T00:11:39.137Z,27.40
2018-04-20T00:14:09.019Z,27.40
2018-04-20T00:16:38.856Z,27.50
2018-04-20T00:19:08.890Z,27.60
2018-04-20T00:21:38.772Z,27.70
2018-04-20T00:24:08.718Z,27.80
2018-04-20T00:26:39.321Z,28.00
2018-04-20T00:29:09.174Z,28.00
2018-04-20T00:31:40.276Z,28.20
2018-04-20T00:34:10.140Z,28.20
2018-04-20T00:36:40.637Z,28.30
2018-04-20T00:39:10.417Z,28.30
2018-04-20T00:41:40.194Z,28.30
2018-04-20T00:44:09.919Z,28.30
2018-04-20T00:46:39.732Z,28.30
2018-04-20T00:49:09.478Z,28.40
2018-04-20T00:51:39.263Z,28.50
2018-04-20T00:54:28.645Z,28.40
2018-04-20T00:56:58.338Z,28.50
2018-04-20T00:59:28.015Z,28.50
2018-04-20T01:01:58.701Z,28.60
2018-04-20T01:04:28.526Z,28.60
2018-04-20T01:06:59.276Z,28.60
2018-04-20T01:09:29.907Z,28.80
2018-04-20T01:12:00.661Z,28.90
2018-04-20T01:14:30.573Z,28.90
2018-04-20T01:17:01.065Z,29.10
2018-04-20T01:19:30.855Z,29.10
2018-04-20T01:22:00.765Z,28.40
2018-04-20T01:24:30.604Z,29.40
2018-04-20T01:27:00.464Z,29.40
2018-04-20T01:29:30.187Z,29.50
2018-04-20T01:31:59.830Z,29.60
2018-04-20T01:34:29.584Z,29.70
2018-04-20T01:36:59.469Z,29.80
2018-04-20T01:39:29.346Z,29.90
2018-04-20T01:41:59.890Z,30.20
2018-04-20T01:44:29.774Z,30.10
2018-04-20T01:46:59.493Z,30.30
2018-04-20T01:49:29.231Z,30.40
2018-04-20T01:51:58.979Z,30.40
2018-04-20T01:54:29.478Z,30.50
2018-04-20T01:56:59.360Z,30.40
2018-04-20T01:59:29.353Z,30.60
2018-04-20T02:01:59.881Z,30.70
2018-04-20T02:04:30.172Z,30.70
2018-04-20T02:07:00.666Z,30.80
2018-04-20T02:09:30.571Z,30.90
2018-04-20T02:12:00.298Z,30.80
2018-04-20T02:14:30.163Z,30.80
2018-04-20T02:16:59.920Z,31.00
2018-04-20T02:19:30.928Z,31.10
2018-04-20T02:22:00.778Z,31.20
2018-04-20T02:24:30.638Z,31.20
2018-04-20T02:27:00.921Z,31.30
2018-04-20T02:29:30.642Z,31.40
2018-04-20T02:32:00.478Z,31.50
2018-04-20T02:34:31.112Z,31.60
2018-04-20T02:37:01.637Z,31.70
2018-04-20T02:39:32.519Z,31.70
2018-04-20T02:42:03.146Z,31.80
2018-04-20T02:44:32.981Z,31.80
2018-04-20T02:47:02.710Z,31.80
2018-04-20T02:49:32.551Z,31.90
2018-04-20T02:52:02.489Z,32.10
2018-04-20T02:54:32.347Z,32.10
2018-04-20T02:57:02.201Z,32.20
2018-04-20T02:59:31.941Z,32.30
2018-04-20T03:02:01.708Z,32.30
2018-04-20T03:04:31.726Z,32.40
2018-04-20T03:07:02.375Z,32.50
2018-04-20T03:09:32.119Z,32.50
2018-04-20T03:12:02.834Z,32.60
2018-04-20T03:14:32.718Z,32.70
2018-04-20T03:17:02.495Z,32.80
2018-04-20T03:19:32.291Z,32.90
2018-04-20T03:22:02.252Z,33.00
2018-04-20T03:24:32.885Z,33.20
2018-04-20T03:27:02.656Z,33.20
2018-04-20T03:29:33.203Z,33.30
2018-04-20T03:32:03.894Z,33.70
2018-04-20T03:34:33.656Z,33.70
2018-04-20T03:37:04.312Z,34.00
2018-04-20T03:39:34.092Z,33.90
2018-04-20T03:42:04.735Z,34.00
2018-04-20T03:44:35.433Z,34.10
2018-04-20T03:47:05.233Z,34.10
2018-04-20T03:49:35.806Z,34.20
2018-04-20T03:52:06.748Z,34.30
2018-04-20T03:54:37.435Z,34.40
2018-04-20T03:57:07.129Z,34.40
2018-04-20T03:59:37.488Z,34.50
2018-04-20T04:02:07.370Z,34.60
2018-04-20T04:04:37.038Z,34.60
2018-04-20T04:07:07.631Z,34.60
2018-04-20T04:09:37.480Z,34.60
2018-04-20T04:12:08.090Z,34.80
2018-04-20T04:14:37.923Z,34.80
2018-04-20T04:17:19.525Z,34.90
2018-04-20T04:20:15.079Z,34.90
2018-04-20T04:22:56.023Z,34.90
2018-04-20T04:25:36.873Z,35.00
2018-04-20T04:28:18.520Z,35.20
2018-04-20T04:30:48.286Z,35.20
2018-04-20T04:33:17.982Z,35.30
2018-04-20T04:35:48.622Z,35.40
2018-04-20T04:38:18.494Z,35.40
2018-04-20T04:40:48.240Z,35.40
2018-04-20T04:43:19.056Z,35.50
2018-04-20T04:45:48.896Z,35.50
2018-04-20T04:48:19.450Z,35.60
2018-04-20T04:50:49.335Z,35.60
2018-04-20T04:53:19.961Z,35.60
2018-04-20T04:55:50.521Z,35.50
2018-04-20T04:58:20.325Z,35.50
2018-04-20T05:00:51.331Z,35.60
2018-04-20T05:03:21.935Z,35.50
2018-04-20T05:05:51.973Z,35.50
2018-04-20T05:08:22.561Z,35.50
2018-04-20T05:10:52.294Z,35.50
2018-04-20T05:13:22.217Z,35.50
2018-04-20T05:15:52.024Z,35.50
2018-04-20T05:18:21.860Z,35.50
2018-04-20T05:20:52.603Z,35.50
2018-04-20T05:23:23.245Z,35.50
2018-04-20T05:25:52.936Z,35.50
2018-04-20T05:28:23.548Z,35.60
2018-04-20T05:30:53.266Z,35.50
2018-04-20T05:33:23.003Z,35.60
2018-04-20T05:35:53.016Z,35.70
2018-04-20T05:38:23.647Z,35.70
2018-04-20T05:40:53.601Z,35.70
2018-04-20T05:43:23.679Z,35.80
2018-04-20T05:45:54.477Z,35.50
2018-04-20T05:48:24.434Z,35.50
2018-04-20T05:50:54.414Z,35.30
2018-04-20T05:53:24.328Z,35.20
2018-04-20T05:55:54.372Z,35.30
2018-04-20T05:58:25.044Z,35.40
2018-04-20T06:00:55.433Z,35.30
2018-04-20T06:03:26.091Z,35.50
2018-04-20T06:05:56.138Z,35.50
2018-04-20T06:08:26.054Z,35.60
2018-04-20T06:10:56.037Z,35.60
2018-04-20T06:13:25.996Z,35.50
2018-04-20T06:15:56.312Z,35.40
2018-04-20T06:18:26.257Z,35.00
2018-04-20T06:20:57.499Z,34.40
2018-04-20T06:23:28.318Z,34.10
2018-04-20T06:25:58.208Z,34.00
2018-04-20T06:28:28.225Z,33.70
2018-04-20T06:30:58.056Z,33.50
2018-04-20T06:33:27.793Z,33.40
2018-04-20T06:35:59.640Z,33.20
2018-04-20T06:38:30.280Z,33.00
2018-04-20T06:41:00.787Z,32.80
2018-04-20T06:43:30.689Z,32.80
2018-04-20T06:46:00.532Z,32.70
2018-04-20T06:48:31.000Z,32.60
2018-04-20T06:51:00.845Z,32.60
2018-04-20T06:53:30.920Z,32.50
2018-04-20T06:56:00.804Z,32.40
2018-04-20T06:58:30.821Z,32.30
2018-04-20T07:01:00.658Z,32.20
2018-04-20T07:03:30.517Z,32.10
2018-04-20T07:06:00.299Z,32.10
2018-04-20T07:08:30.047Z,32.00
2018-04-20T07:10:59.748Z,31.90
2018-04-20T07:13:29.632Z,31.90
2018-04-20T07:15:59.399Z,32.00
2018-04-20T07:18:29.170Z,31.90
2018-04-20T07:20:58.929Z,31.90
2018-04-20T07:23:29.802Z,31.90
2018-04-20T07:25:59.674Z,31.90
2018-04-20T07:28:29.441Z,31.90
2018-04-20T07:30:59.182Z,31.90
2018-04-20T07:33:28.896Z,31.90
2018-04-20T07:35:58.650Z,32.00
2018-04-20T07:38:28.630Z,32.10
2018-04-20T07:40:58.389Z,32.30
2018-04-20T07:43:28.075Z,32.40
2018-04-20T07:45:58.808Z,32.50
2018-04-20T07:48:29.441Z,32.50
2018-04-20T07:50:59.353Z,32.50
2018-04-20T07:53:29.064Z,32.40
2018-04-20T07:55:58.943Z,32.40
2018-04-20T07:58:29.912Z,32.30
2018-04-20T08:01:01.216Z,32.20
2018-04-20T08:03:31.746Z,32.20
2018-04-20T08:06:02.168Z,32.20
2018-04-20T08:08:31.968Z,32.20
2018-04-20T08:11:01.800Z,32.20
2018-04-20T08:13:31.652Z,32.30
2018-04-20T08:16:02.284Z,32.40
2018-04-20T08:18:32.802Z,32.50
2018-04-20T08:21:03.433Z,32.50
2018-04-20T08:23:33.949Z,32.60
2018-04-20T08:26:03.817Z,32.60
2018-04-20T08:28:33.806Z,32.70
2018-04-20T08:31:03.567Z,32.70
2018-04-20T08:33:34.515Z,32.90
2018-04-20T08:36:04.227Z,32.90
2018-04-20T08:38:34.095Z,33.00
2018-04-20T08:41:05.042Z,33.00
2018-04-20T08:43:34.848Z,33.00
2018-04-20T08:46:04.687Z,33.00
2018-04-20T08:48:34.572Z,33.00
2018-04-20T08:51:04.390Z,33.10
2018-04-20T08:53:34.161Z,33.10
2018-04-20T08:56:04.096Z,33.10
2018-04-20T08:58:34.110Z,33.20
2018-04-20T09:01:03.837Z,33.20
2018-04-20T09:03:33.585Z,33.20
2018-04-20T09:06:03.470Z,33.20
2018-04-20T09:08:33.322Z,33.20
2018-04-20T09:11:03.037Z,33.20
2018-04-20T09:13:32.875Z,33.30
2018-04-20T09:16:03.426Z,33.40
2018-04-20T09:18:33.653Z,33.30
2018-04-20T09:21:03.531Z,33.40
2018-04-20T09:23:34.567Z,32.90
2018-04-20T09:26:05.109Z,33.50
2018-04-20T09:28:35.701Z,33.50
2018-04-20T09:31:05.561Z,33.50
2018-04-20T09:33:35.574Z,33.50
2018-04-20T09:36:05.325Z,33.50
2018-04-20T09:38:36.054Z,33.50
2018-04-20T09:41:05.912Z,33.50
2018-04-20T09:43:36.396Z,33.50
2018-04-20T09:46:06.143Z,33.50
2018-04-20T09:48:36.002Z,33.50
2018-04-20T09:51:05.890Z,33.50
2018-04-20T09:53:36.404Z,33.50
2018-04-20T09:56:07.026Z,33.50
2018-04-20T09:58:37.062Z,33.40
2018-04-20T10:01:11.027Z,33.20
2018-04-20T10:03:46.274Z,33.20
2018-04-20T10:06:16.802Z,33.00
2018-04-20T10:08:46.546Z,33.00
2018-04-20T10:11:17.042Z,32.80
2018-04-20T10:13:46.864Z,32.70
2018-04-20T10:16:16.607Z,32.70
2018-04-20T10:18:47.112Z,32.50
2018-04-20T10:21:17.805Z,32.50
2018-04-20T10:23:48.058Z,32.40
2018-04-20T10:26:19.564Z,32.40
2018-04-20T10:28:49.284Z,32.40
2018-04-20T10:31:19.478Z,32.30
2018-04-20T10:33:50.008Z,32.20
2018-04-20T10:36:20.079Z,32.20
2018-04-20T10:38:49.846Z,32.20
2018-04-20T10:41:19.714Z,32.10
2018-04-20T10:43:50.240Z,32.00
2018-04-20T10:46:20.305Z,32.00
2018-04-20T10:48:50.209Z,31.90
2018-04-20T10:51:20.685Z,31.80
2018-04-20T10:53:50.413Z,31.80
2018-04-20T10:56:20.365Z,31.70
2018-04-20T10:58:50.277Z,31.70
2018-04-20T11:01:20.839Z,31.50
2018-04-20T11:03:50.610Z,31.60
2018-04-20T11:06:21.148Z,31.50
2018-04-20T11:08:51.068Z,31.50
2018-04-20T11:11:20.819Z,31.50
2018-04-20T11:13:50.678Z,31.40
2018-04-20T11:16:21.164Z,31.30
2018-04-20T11:18:51.068Z,31.30
2018-04-20T11:21:20.924Z,31.40
2018-04-20T11:23:51.592Z,31.30
2018-04-20T11:26:21.690Z,31.30
2018-04-20T11:28:52.347Z,31.20
2018-04-20T11:31:22.198Z,31.20
2018-04-20T11:33:51.927Z,31.10
2018-04-20T11:36:22.549Z,31.10
2018-04-20T11:38:52.798Z,31.10
2018-04-20T11:41:23.412Z,31.00
2018-04-20T11:43:54.163Z,31.00
2018-04-20T11:46:24.192Z,31.00
2018-04-20T11:48:55.143Z,31.00
2018-04-20T11:51:25.020Z,31.00
2018-04-20T11:53:55.257Z,31.00
2018-04-20T11:56:25.044Z,31.00
2018-04-20T11:58:55.712Z,31.00
2018-04-20T12:01:26.455Z,30.90
2018-04-20T12:03:56.405Z,30.90
2018-04-20T12:06:26.216Z,30.90
2018-04-20T12:08:56.033Z,30.90
2018-04-20T12:11:25.762Z,30.90
2018-04-20T12:13:56.831Z,30.90
2018-04-20T12:16:26.616Z,30.90
2018-04-20T12:18:57.320Z,30.90
2018-04-20T12:21:27.106Z,30.90
2018-04-20T12:23:57.000Z,30.90
2018-04-20T12:26:26.910Z,30.90
2018-04-20T12:28:56.700Z,30.90
2018-04-20T12:31:27.401Z,30.90
2018-04-20T12:33:57.537Z,30.90
2018-04-20T12:36:27.701Z,30.80
2018-04-20T12:38:58.461Z,30.80
2018-04-20T12:41:28.343Z,30.80
2018-04-20T12:43:59.010Z,30.50
2018-04-20T12:46:28.913Z,30.50
2018-04-20T12:48:58.659Z,30.50
2018-04-20T12:51:28.603Z,30.30
2018-04-20T12:53:59.631Z,30.20
2018-04-20T12:56:29.505Z,30.20
2018-04-20T12:58:59.457Z,30.20
2018-04-20T13:01:29.400Z,30.20
2018-04-20T13:03:59.959Z,30.00
2018-04-20T13:06:29.857Z,30.00
2018-04-20T13:08:59.623Z,30.00
2018-04-20T13:11:29.534Z,29.90
2018-04-20T13:13:59.364Z,29.90
2018-04-20T13:16:30.092Z,30.00
2018-04-20T13:19:00.001Z,30.00
2018-04-20T13:21:29.901Z,30.10
2018-04-20T13:23:59.694Z,30.10
2018-04-20T13:26:29.576Z,30.10
2018-04-20T13:29:00.151Z,30.10
2018-04-20T13:31:30.113Z,30.10
2018-04-20T13:34:00.689Z,30.20
2018-04-20T13:36:30.458Z,30.10
2018-04-20T13:39:00.257Z,30.20
2018-04-20T13:41:30.939Z,30.20
2018-04-20T13:44:01.277Z,30.20
2018-04-20T13:46:31.054Z,30.20
2018-04-20T13:49:01.024Z,30.20
2018-04-20T13:51:31.847Z,30.20
2018-04-20T13:54:01.609Z,30.20
2018-04-20T13:56:31.426Z,30.10
2018-04-20T13:59:01.367Z,30.20
2018-04-20T14:01:31.270Z,30.20
2018-04-20T14:04:01.423Z,30.20
2018-04-20T14:06:31.192Z,30.10
2018-04-20T14:09:01.021Z,30.10
2018-04-20T14:11:30.999Z,30.10
2018-04-20T14:14:01.779Z,29.90
2018-04-20T14:16:31.736Z,29.90
2018-04-20T14:19:02.316Z,29.90
2018-04-20T14:21:32.193Z,29.90
2018-04-20T14:24:02.216Z,29.90
2018-04-20T14:26:32.358Z,29.80
2018-04-20T14:29:02.124Z,29.80
2018-04-20T14:31:33.298Z,29.80
2018-04-20T14:34:03.173Z,29.80
2018-04-20T14:36:33.200Z,29.80
2018-04-20T14:39:03.792Z,29.80
2018-04-20T14:41:33.816Z,29.80
2018-04-20T14:44:03.956Z,29.80
2018-04-20T14:46:34.613Z,29.80
2018-04-20T14:49:04.609Z,29.80
2018-04-20T14:51:34.618Z,29.80
2018-04-20T14:54:05.996Z,29.80
2018-04-20T14:56:36.853Z,29.80
2018-04-20T14:59:08.161Z,29.80
2018-04-20T15:01:39.315Z,29.80
2018-04-20T15:04:10.657Z,29.70
2018-04-20T15:06:40.696Z,29.70
2018-04-20T15:09:10.569Z,29.70
2018-04-20T15:11:40.574Z,29.70
2018-04-20T15:14:10.352Z,29.70
2018-04-20T15:16:40.465Z,29.70
2018-04-20T15:19:10.237Z,29.70
2018-04-20T15:21:40.177Z,29.70
2018-04-20T15:24:10.194Z,29.60
2018-04-20T15:26:40.307Z,29.70
2018-04-20T15:29:11.005Z,29.60
2018-04-20T15:31:41.563Z,29.60
2018-04-20T15:34:12.243Z,29.70
2018-04-20T15:36:42.129Z,29.60
2018-04-20T15:39:12.072Z,29.70
2018-04-20T15:41:41.952Z,29.70
2018-04-20T15:44:11.930Z,29.70
2018-04-20T15:46:41.794Z,29.70
2018-04-20T15:49:11.731Z,29.70
2018-04-20T15:51:42.273Z,29.70
2018-04-20T15:54:12.336Z,29.60
2018-04-20T15:56:43.024Z,29.50
2018-04-20T15:59:12.818Z,29.50
2018-04-20T16:01:42.578Z,29.40
2018-04-20T16:04:13.116Z,29.30
2018-04-20T16:06:43.821Z,29.40
2018-04-20T16:09:13.548Z,29.30
2018-04-20T16:11:44.300Z,29.40
2018-04-20T16:14:14.096Z,29.40
2018-04-20T16:16:44.785Z,29.40
2018-04-20T16:19:14.555Z,29.40
2018-04-20T16:21:45.391Z,29.30
2018-04-20T16:24:15.585Z,29.30
2018-04-20T16:26:45.977Z,29.30
2018-04-20T16:29:16.548Z,29.30
2018-04-20T16:31:48.603Z,29.30
2018-04-20T16:34:20.296Z,29.30
2018-04-20T16:36:50.826Z,29.30
2018-04-20T16:39:21.994Z,29.30
2018-04-20T16:41:52.693Z,29.30
2018-04-20T16:44:23.951Z,29.30
2018-04-20T16:46:55.416Z,29.30
2018-04-20T16:49:26.308Z,29.30
2018-04-20T16:51:56.871Z,29.20
2018-04-20T16:54:27.492Z,29.20
2018-04-20T16:56:58.155Z,29.10
2018-04-20T16:59:28.675Z,29.10
2018-04-20T17:01:59.392Z,29.00
2018-04-20T17:04:29.750Z,29.00
2018-04-20T17:07:00.849Z,29.10
2018-04-20T17:09:31.810Z,29.00
2018-04-20T17:12:02.474Z,29.00
2018-04-20T17:14:32.809Z,29.00
2018-04-20T17:17:03.787Z,29.00
2018-04-20T17:19:36.356Z,29.00
2018-04-20T17:22:07.681Z,29.00
2018-04-20T17:24:38.053Z,29.00
2018-04-20T17:27:09.586Z,29.10
2018-04-20T17:29:41.766Z,29.10
2018-04-20T17:32:12.637Z,29.10
2018-04-20T17:34:45.664Z,29.20
2018-04-20T17:37:16.853Z,29.10
2018-04-20T17:39:47.558Z,29.10
2018-04-20T17:42:19.231Z,29.10
2018-04-20T17:44:49.932Z,29.00
2018-04-20T17:47:21.272Z,29.10
2018-04-20T17:49:51.685Z,29.00
2018-04-20T17:52:22.304Z,29.10
2018-04-20T17:54:52.723Z,29.00
2018-04-20T17:57:22.846Z,29.10
2018-04-20T17:59:54.580Z,29.00
2018-04-20T18:02:24.671Z,29.00
2018-04-20T18:04:54.745Z,29.00
2018-04-20T18:07:24.618Z,29.00
2018-04-20T18:09:54.501Z,29.00
2018-04-20T18:12:24.979Z,29.10
2018-04-20T18:14:55.220Z,29.00
2018-04-20T18:17:25.083Z,29.10
2018-04-20T18:19:54.929Z,29.10
2018-04-20T18:22:24.877Z,29.10
2018-04-20T18:24:54.719Z,29.10
2018-04-20T18:27:25.320Z,29.10
2018-04-20T18:29:55.122Z,29.10
2018-04-20T18:32:24.874Z,29.10
2018-04-20T18:34:55.407Z,29.10
2018-04-20T18:37:26.011Z,29.10
2018-04-20T18:39:56.551Z,29.10
2018-04-20T18:42:27.323Z,29.10
2018-04-20T18:44:57.144Z,29.00
2018-04-20T18:47:27.202Z,29.00
2018-04-20T18:49:56.976Z,29.00
2018-04-20T18:52:27.332Z,29.00
2018-04-20T18:54:57.192Z,28.90
2018-04-20T18:57:27.366Z,28.90
2018-04-20T18:59:57.250Z,28.80
2018-04-20T19:02:26.987Z,28.80
2018-04-20T19:04:56.730Z,28.80
2018-04-20T19:07:27.257Z,28.70
2018-04-20T19:09:57.787Z,28.60
2018-04-20T19:12:28.420Z,28.60
2018-04-20T19:14:59.255Z,28.60
2018-04-20T19:17:29.765Z,28.60
2018-04-20T19:20:02.508Z,28.60
2018-04-20T19:22:33.268Z,28.60
2018-04-20T19:25:03.013Z,28.50
2018-04-20T19:27:33.828Z,28.60
2018-04-20T19:30:04.628Z,28.60
2018-04-20T19:32:34.707Z,28.60
2018-04-20T19:35:04.708Z,28.60
2018-04-20T19:37:35.857Z,28.60
2018-04-20T19:40:06.394Z,28.60
2018-04-20T19:42:36.149Z,28.60
2018-04-20T19:45:06.036Z,28.50
2018-04-20T19:47:35.970Z,28.50
2018-04-20T19:50:05.910Z,28.40
2018-04-20T19:52:36.151Z,28.40
2018-04-20T19:55:06.908Z,28.50
2018-04-20T19:57:36.663Z,28.40
2018-04-20T20:00:06.484Z,28.50
2018-04-20T20:02:36.236Z,28.50
2018-04-20T20:05:06.144Z,28.50
2018-04-20T20:07:36.809Z,28.50
2018-04-20T20:10:07.135Z,28.40
2018-04-20T20:12:37.244Z,28.50
2018-04-20T20:15:07.148Z,28.50
2018-04-20T20:17:36.898Z,28.50
2018-04-20T20:20:06.976Z,28.50
2018-04-20T20:22:36.716Z,28.50
2018-04-20T20:25:06.558Z,28.50
2018-04-20T20:27:37.483Z,28.40
2018-04-20T20:30:07.263Z,28.50
2018-04-20T20:32:37.150Z,28.50
2018-04-20T20:35:06.959Z,28.40
2018-04-20T20:37:37.473Z,28.40
2018-04-20T20:40:08.009Z,28.40
2018-04-20T20:42:39.573Z,28.40
2018-04-20T20:45:09.705Z,28.40
2018-04-20T20:47:39.485Z,28.40
2018-04-20T20:50:10.099Z,28.40
2018-04-20T20:52:39.985Z,28.40
2018-04-20T20:55:09.910Z,28.40
2018-04-20T20:57:39.662Z,28.50
2018-04-20T21:00:10.303Z,28.50
2018-04-20T21:02:40.836Z,28.50
2018-04-20T21:05:11.527Z,28.50
2018-04-20T21:07:41.309Z,28.40
2018-04-20T21:10:12.167Z,28.50
2018-04-20T21:12:42.123Z,28.50
2018-04-20T21:15:11.986Z,28.50
2018-04-20T21:17:41.841Z,28.50
2018-04-20T21:20:12.446Z,28.40
2018-04-20T21:22:42.404Z,28.50
2018-04-20T21:25:12.955Z,28.40
2018-04-20T21:27:42.829Z,28.30
2018-04-20T21:30:13.367Z,28.30
2018-04-20T21:32:43.862Z,28.40
2018-04-20T21:35:13.760Z,28.30
2018-04-20T21:37:43.634Z,28.40
2018-04-20T21:40:13.501Z,28.30
2018-04-20T21:42:43.283Z,28.30
2018-04-20T21:45:13.251Z,28.30
2018-04-20T21:47:42.990Z,28.30
2018-04-20T21:50:12.904Z,28.30
2018-04-20T21:52:42.808Z,28.30
2018-04-20T21:55:13.350Z,28.30
2018-04-20T21:57:43.249Z,28.30
2018-04-20T22:00:14.381Z,28.30
2018-04-20T22:02:45.133Z,28.20
2018-04-20T22:05:15.637Z,28.20
2018-04-20T22:07:46.312Z,28.20
2018-04-20T22:10:16.188Z,28.10
2018-04-20T22:12:46.682Z,28.10
2018-04-20T22:15:16.478Z,28.10
2018-04-20T22:17:46.212Z,28.10
2018-04-20T22:20:16.132Z,28.10
2018-04-20T22:22:45.872Z,28.10
2018-04-20T22:25:16.635Z,28.10
2018-04-20T22:27:46.550Z,28.10
2018-04-20T22:30:16.290Z,28.10
2018-04-20T22:32:46.220Z,28.10
2018-04-20T22:35:15.958Z,28.10
2018-04-20T22:37:46.632Z,28.00
2018-04-20T22:40:16.514Z,27.90
2018-04-20T22:42:46.421Z,27.90
2018-04-20T22:45:17.239Z,27.90
2018-04-20T22:47:47.900Z,27.80
2018-04-20T22:50:17.738Z,27.80
2018-04-20T22:52:47.576Z,27.80
2018-04-20T22:55:17.563Z,27.80
2018-04-20T22:57:47.423Z,27.70
2018-04-20T23:00:24.262Z,27.70
2018-04-20T23:02:54.884Z,27.60
2018-04-20T23:05:24.731Z,27.60
2018-04-20T23:07:54.575Z,27.60
2018-04-20T23:10:25.212Z,27.60
2018-04-20T23:12:54.992Z,27.60
2018-04-20T23:15:24.769Z,27.60
2018-04-20T23:17:54.575Z,27.60
2018-04-20T23:20:24.312Z,27.70
2018-04-20T23:22:54.209Z,27.80
2018-04-20T23:25:23.881Z,27.80
2018-04-20T23:27:53.914Z,27.90
2018-04-20T23:30:23.988Z,27.90
2018-04-20T23:32:54.233Z,27.90
2018-04-20T23:35:24.575Z,28.00
2018-04-20T23:37:54.434Z,28.00
2018-04-20T23:40:24.698Z,28.10
2018-04-20T23:42:54.805Z,28.10
2018-04-20T23:45:25.001Z,28.10
2018-04-20T23:47:54.859Z,28.10
2018-04-20T23:50:26.100Z,28.10
2018-04-20T23:52:56.049Z,28.10
2018-04-20T23:55:25.756Z,28.20
2018-04-20T23:57:55.497Z,28.20
